sensor_id;sensor_type;location;lat;lon;timestamp;temperature;humidity
11055;DHT22;5580;50.106;8.702;2023-04-30T00:01:57;13.90;99.90
11055;DHT22;5580;50.106;8.702;2023-04-30T00:04:22;13.80;99.90
11055;DHT22;5580;50.106;8.702;2023-04-30T00:06:48;13.70;99.90
11055;DHT22;5580;50.106;8.702;2023-04-30T00:09:13;13.70;99.90
11055;DHT22;5580;50.106;8.702;2023-04-30T00:11:39;13.70;99.90
11055;DHT22;5580;50.106;8.702;2023-04-30T00:14:04;13.70;99.90
11055;DHT22;5580;50.106;8.702;2023-04-30T00:16:30;13.70;99.90
11055;DHT22;5580;50.106;8.702;2023-04-30T00:18:56;13.70;99.90
11055;DHT22;5580;50.106;8.702;2023-04-30T00:21:21;13.70;99.90
11055;DHT22;5580;50.106;8.702;2023-04-30T00:23:47;13.70;99.90
11055;DHT22;5580;50.106;8.702;2023-04-30T00:26:12;13.70;99.90
11055;DHT22;5580;50.106;8.702;2023-04-30T00:28:38;13.70;99.90
11055;DHT22;5580;50.106;8.702;2023-04-30T00:31:04;13.70;99.90
11055;DHT22;5580;50.106;8.702;2023-04-30T00:33:33;13.70;99.90
11055;DHT22;5580;50.106;8.702;2023-04-30T00:35:59;13.60;99.90
11055;DHT22;5580;50.106;8.702;2023-04-30T00:38:25;13.60;99.90
11055;DHT22;5580;50.106;8.702;2023-04-30T00:40:51;13.70;99.90
11055;DHT22;5580;50.106;8.702;2023-04-30T00:43:17;13.60;99.90
11055;DHT22;5580;50.106;8.702;2023-04-30T00:45:43;13.60;99.90
11055;DHT22;5580;50.106;8.702;2023-04-30T00:48:08;13.50;99.90
11055;DHT22;5580;50.106;8.702;2023-04-30T00:50:35;13.40;99.90
11055;DHT22;5580;50.106;8.702;2023-04-30T00:53:01;13.40;99.90
11055;DHT22;5580;50.106;8.702;2023-04-30T00:55:27;13.40;99.90
11055;DHT22;5580;50.106;8.702;2023-04-30T00:57:53;13.30;99.90
11055;DHT22;5580;50.106;8.702;2023-04-30T01:00:18;13.30;99.90
11055;DHT22;5580;50.106;8.702;2023-04-30T01:02:44;13.20;99.90
11055;DHT22;5580;50.106;8.702;2023-04-30T01:05:10;13.30;99.90
11055;DHT22;5580;50.106;8.702;2023-04-30T01:07:36;13.30;99.90
11055;DHT22;5580;50.106;8.702;2023-04-30T01:10:13;13.30;99.90
11055;DHT22;5580;50.106;8.702;2023-04-30T01:18:16;13.20;99.90
11055;DHT22;5580;50.106;8.702;2023-04-30T01:20:52;13.20;99.90
11055;DHT22;5580;50.106;8.702;2023-04-30T01:26:14;13.10;99.90
11055;DHT22;5580;50.106;8.702;2023-04-30T01:28:46;13.10;99.90
11055;DHT22;5580;50.106;8.702;2023-04-30T01:31:17;13.10;99.90
11055;DHT22;5580;50.106;8.702;2023-04-30T01:33:43;13.10;99.90
11055;DHT22;5580;50.106;8.702;2023-04-30T01:39:47;13.10;99.90
11055;DHT22;5580;50.106;8.702;2023-04-30T01:42:21;13.10;99.90
11055;DHT22;5580;50.106;8.702;2023-04-30T01:47:47;13.10;99.90
11055;DHT22;5580;50.106;8.702;2023-04-30T01:50:36;13.10;99.90
11055;DHT22;5580;50.106;8.702;2023-04-30T01:53:06;13.00;99.90
11055;DHT22;5580;50.106;8.702;2023-04-30T01:55:42;12.90;99.90
11055;DHT22;5580;50.106;8.702;2023-04-30T01:58:12;12.90;99.90
11055;DHT22;5580;50.106;8.702;2023-04-30T02:00:38;12.80;99.90
11055;DHT22;5580;50.106;8.702;2023-04-30T02:03:04;12.80;99.90
11055;DHT22;5580;50.106;8.702;2023-04-30T02:05:29;12.80;99.90
11055;DHT22;5580;50.106;8.702;2023-04-30T02:07:55;12.90;99.90
11055;DHT22;5580;50.106;8.702;2023-04-30T02:10:24;12.90;99.90
11055;DHT22;5580;50.106;8.702;2023-04-30T02:12:49;13.00;99.90
11055;DHT22;5580;50.106;8.702;2023-04-30T02:15:15;12.80;99.90
11055;DHT22;5580;50.106;8.702;2023-04-30T02:17:41;12.80;99.90
11055;DHT22;5580;50.106;8.702;2023-04-30T02:20:07;12.70;99.90
11055;DHT22;5580;50.106;8.702;2023-04-30T02:22:33;12.70;99.90
11055;DHT22;5580;50.106;8.702;2023-04-30T02:24:59;12.70;99.90
11055;DHT22;5580;50.106;8.702;2023-04-30T02:27:25;12.80;99.90
11055;DHT22;5580;50.106;8.702;2023-04-30T02:29:52;12.80;99.90
11055;DHT22;5580;50.106;8.702;2023-04-30T02:32:18;12.80;99.90
11055;DHT22;5580;50.106;8.702;2023-04-30T02:34:44;12.80;99.90
11055;DHT22;5580;50.106;8.702;2023-04-30T02:37:10;12.80;99.90
11055;DHT22;5580;50.106;8.702;2023-04-30T02:39:35;12.70;99.90
11055;DHT22;5580;50.106;8.702;2023-04-30T02:42:01;12.70;99.90
11055;DHT22;5580;50.106;8.702;2023-04-30T02:44:27;12.60;99.90
11055;DHT22;5580;50.106;8.702;2023-04-30T02:46:53;12.70;99.90
11055;DHT22;5580;50.106;8.702;2023-04-30T02:49:19;12.70;99.90
11055;DHT22;5580;50.106;8.702;2023-04-30T02:51:44;12.60;99.90
11055;DHT22;5580;50.106;8.702;2023-04-30T02:54:10;12.70;99.90
11055;DHT22;5580;50.106;8.702;2023-04-30T02:56:36;12.60;99.90
11055;DHT22;5580;50.106;8.702;2023-04-30T02:59:03;12.60;99.90
11055;DHT22;5580;50.106;8.702;2023-04-30T03:01:28;12.60;99.90
11055;DHT22;5580;50.106;8.702;2023-04-30T03:03:54;12.60;99.90
11055;DHT22;5580;50.106;8.702;2023-04-30T03:06:19;12.50;99.90
11055;DHT22;5580;50.106;8.702;2023-04-30T03:08:45;12.40;99.90
11055;DHT22;5580;50.106;8.702;2023-04-30T03:11:11;12.40;99.90
11055;DHT22;5580;50.106;8.702;2023-04-30T03:13:36;12.40;99.90
11055;DHT22;5580;50.106;8.702;2023-04-30T03:16:02;12.30;99.90
11055;DHT22;5580;50.106;8.702;2023-04-30T03:18:31;12.20;99.90
11055;DHT22;5580;50.106;8.702;2023-04-30T03:20:57;12.10;99.90
11055;DHT22;5580;50.106;8.702;2023-04-30T03:23:25;12.10;99.90
11055;DHT22;5580;50.106;8.702;2023-04-30T03:25:51;12.10;99.90
11055;DHT22;5580;50.106;8.702;2023-04-30T03:28:17;12.10;99.90
11055;DHT22;5580;50.106;8.702;2023-04-30T03:30:43;12.00;99.90
11055;DHT22;5580;50.106;8.702;2023-04-30T03:33:08;11.90;99.90
11055;DHT22;5580;50.106;8.702;2023-04-30T03:35:34;11.90;99.90
11055;DHT22;5580;50.106;8.702;2023-04-30T03:38:00;11.80;99.90
11055;DHT22;5580;50.106;8.702;2023-04-30T03:40:26;11.70;99.90
11055;DHT22;5580;50.106;8.702;2023-04-30T03:42:52;11.60;99.90
11055;DHT22;5580;50.106;8.702;2023-04-30T03:45:17;11.50;99.90
11055;DHT22;5580;50.106;8.702;2023-04-30T03:47:44;11.50;99.90
11055;DHT22;5580;50.106;8.702;2023-04-30T03:50:10;11.50;99.90
11055;DHT22;5580;50.106;8.702;2023-04-30T03:52:35;11.40;99.90
11055;DHT22;5580;50.106;8.702;2023-04-30T03:55:02;11.50;99.90
11055;DHT22;5580;50.106;8.702;2023-04-30T03:57:28;11.50;99.90
11055;DHT22;5580;50.106;8.702;2023-04-30T03:59:53;11.60;99.90
11055;DHT22;5580;50.106;8.702;2023-04-30T04:02:19;11.60;99.90
11055;DHT22;5580;50.106;8.702;2023-04-30T04:04:46;11.70;99.90
11055;DHT22;5580;50.106;8.702;2023-04-30T04:07:12;11.60;99.90
11055;DHT22;5580;50.106;8.702;2023-04-30T04:09:37;11.40;99.90
11055;DHT22;5580;50.106;8.702;2023-04-30T04:12:03;11.40;99.90
11055;DHT22;5580;50.106;8.702;2023-04-30T04:14:29;11.50;99.90
11055;DHT22;5580;50.106;8.702;2023-04-30T04:16:55;11.40;99.90
11055;DHT22;5580;50.106;8.702;2023-04-30T04:19:22;11.40;99.90
11055;DHT22;5580;50.106;8.702;2023-04-30T04:21:48;11.50;99.90
11055;DHT22;5580;50.106;8.702;2023-04-30T04:24:13;11.40;99.90
11055;DHT22;5580;50.106;8.702;2023-04-30T04:26:39;11.40;99.90
11055;DHT22;5580;50.106;8.702;2023-04-30T04:29:06;11.30;99.90
11055;DHT22;5580;50.106;8.702;2023-04-30T04:31:33;11.30;99.90
11055;DHT22;5580;50.106;8.702;2023-04-30T04:34:00;11.20;99.90
11055;DHT22;5580;50.106;8.702;2023-04-30T04:36:27;11.20;99.90
11055;DHT22;5580;50.106;8.702;2023-04-30T04:38:53;11.30;99.90
11055;DHT22;5580;50.106;8.702;2023-04-30T04:41:22;11.30;99.90
11055;DHT22;5580;50.106;8.702;2023-04-30T04:43:48;11.20;99.90
11055;DHT22;5580;50.106;8.702;2023-04-30T04:46:14;11.30;99.90
11055;DHT22;5580;50.106;8.702;2023-04-30T04:48:41;11.40;99.90
11055;DHT22;5580;50.106;8.702;2023-04-30T04:51:07;11.40;99.90
11055;DHT22;5580;50.106;8.702;2023-04-30T04:53:32;11.50;99.90
11055;DHT22;5580;50.106;8.702;2023-04-30T04:55:58;11.50;99.90
11055;DHT22;5580;50.106;8.702;2023-04-30T04:58:23;11.60;99.90
11055;DHT22;5580;50.106;8.702;2023-04-30T05:00:49;11.70;99.90
11055;DHT22;5580;50.106;8.702;2023-04-30T05:03:15;11.70;99.90
11055;DHT22;5580;50.106;8.702;2023-04-30T05:05:40;11.70;99.90
11055;DHT22;5580;50.106;8.702;2023-04-30T05:08:07;11.70;99.90
11055;DHT22;5580;50.106;8.702;2023-04-30T05:10:32;11.60;99.90
11055;DHT22;5580;50.106;8.702;2023-04-30T05:12:59;11.60;99.90
11055;DHT22;5580;50.106;8.702;2023-04-30T05:15:24;11.80;99.90
11055;DHT22;5580;50.106;8.702;2023-04-30T05:17:50;11.90;99.90
11055;DHT22;5580;50.106;8.702;2023-04-30T05:20:16;12.20;99.90
11055;DHT22;5580;50.106;8.702;2023-04-30T05:22:41;12.20;99.90
11055;DHT22;5580;50.106;8.702;2023-04-30T05:25:07;12.30;99.90
11055;DHT22;5580;50.106;8.702;2023-04-30T05:27:33;12.30;99.90
11055;DHT22;5580;50.106;8.702;2023-04-30T05:29:59;12.40;99.90
11055;DHT22;5580;50.106;8.702;2023-04-30T05:32:25;12.60;99.90
11055;DHT22;5580;50.106;8.702;2023-04-30T05:34:50;12.70;99.90
11055;DHT22;5580;50.106;8.702;2023-04-30T05:37:16;12.80;99.90
11055;DHT22;5580;50.106;8.702;2023-04-30T05:39:43;12.90;99.90
11055;DHT22;5580;50.106;8.702;2023-04-30T05:42:09;12.90;99.90
11055;DHT22;5580;50.106;8.702;2023-04-30T05:44:35;12.90;99.90
11055;DHT22;5580;50.106;8.702;2023-04-30T05:47:00;13.00;99.90
11055;DHT22;5580;50.106;8.702;2023-04-30T05:49:26;13.10;99.90
11055;DHT22;5580;50.106;8.702;2023-04-30T05:51:52;13.10;99.90
11055;DHT22;5580;50.106;8.702;2023-04-30T05:54:17;13.00;99.90
11055;DHT22;5580;50.106;8.702;2023-04-30T05:56:43;13.00;99.90
11055;DHT22;5580;50.106;8.702;2023-04-30T05:59:08;13.10;99.90
11055;DHT22;5580;50.106;8.702;2023-04-30T06:01:34;13.20;99.90
11055;DHT22;5580;50.106;8.702;2023-04-30T06:03:59;13.20;99.90
11055;DHT22;5580;50.106;8.702;2023-04-30T06:06:26;13.40;99.90
11055;DHT22;5580;50.106;8.702;2023-04-30T06:08:52;13.50;99.90
11055;DHT22;5580;50.106;8.702;2023-04-30T06:11:18;13.60;99.90
11055;DHT22;5580;50.106;8.702;2023-04-30T06:13:46;13.50;99.90
11055;DHT22;5580;50.106;8.702;2023-04-30T06:16:11;13.30;99.90
11055;DHT22;5580;50.106;8.702;2023-04-30T06:18:37;13.10;99.90
11055;DHT22;5580;50.106;8.702;2023-04-30T06:21:03;13.00;99.90
11055;DHT22;5580;50.106;8.702;2023-04-30T06:23:28;12.90;99.90
11055;DHT22;5580;50.106;8.702;2023-04-30T06:25:54;12.90;99.90
11055;DHT22;5580;50.106;8.702;2023-04-30T06:28:19;12.80;99.90
11055;DHT22;5580;50.106;8.702;2023-04-30T06:30:45;12.80;99.90
11055;DHT22;5580;50.106;8.702;2023-04-30T06:33:11;12.70;99.90
11055;DHT22;5580;50.106;8.702;2023-04-30T06:35:36;12.60;99.90
11055;DHT22;5580;50.106;8.702;2023-04-30T06:38:02;12.60;99.90
11055;DHT22;5580;50.106;8.702;2023-04-30T06:40:28;12.50;99.90
11055;DHT22;5580;50.106;8.702;2023-04-30T06:42:54;12.60;99.90
11055;DHT22;5580;50.106;8.702;2023-04-30T06:45:19;12.60;99.90
11055;DHT22;5580;50.106;8.702;2023-04-30T06:47:45;12.50;99.90
11055;DHT22;5580;50.106;8.702;2023-04-30T06:50:11;12.50;99.90
11055;DHT22;5580;50.106;8.702;2023-04-30T06:52:37;12.50;99.90
11055;DHT22;5580;50.106;8.702;2023-04-30T06:55:03;12.50;99.90
11055;DHT22;5580;50.106;8.702;2023-04-30T06:57:29;12.60;99.90
11055;DHT22;5580;50.106;8.702;2023-04-30T06:59:56;12.60;99.90
11055;DHT22;5580;50.106;8.702;2023-04-30T07:02:21;12.70;99.90
11055;DHT22;5580;50.106;8.702;2023-04-30T07:04:47;12.70;99.90
11055;DHT22;5580;50.106;8.702;2023-04-30T07:07:13;12.70;99.90
11055;DHT22;5580;50.106;8.702;2023-04-30T07:09:39;12.80;99.90
11055;DHT22;5580;50.106;8.702;2023-04-30T07:12:05;12.80;99.90
11055;DHT22;5580;50.106;8.702;2023-04-30T07:14:31;12.80;99.90
11055;DHT22;5580;50.106;8.702;2023-04-30T07:16:57;12.80;99.90
11055;DHT22;5580;50.106;8.702;2023-04-30T07:19:22;12.90;99.90
11055;DHT22;5580;50.106;8.702;2023-04-30T07:21:49;12.90;99.90
11055;DHT22;5580;50.106;8.702;2023-04-30T07:24:15;12.80;99.90
11055;DHT22;5580;50.106;8.702;2023-04-30T07:26:40;12.90;99.90
11055;DHT22;5580;50.106;8.702;2023-04-30T07:29:06;13.00;99.90
11055;DHT22;5580;50.106;8.702;2023-04-30T07:31:32;13.00;99.90
11055;DHT22;5580;50.106;8.702;2023-04-30T07:33:58;13.00;99.90
11055;DHT22;5580;50.106;8.702;2023-04-30T07:36:27;13.10;99.90
11055;DHT22;5580;50.106;8.702;2023-04-30T07:38:52;13.10;99.90
11055;DHT22;5580;50.106;8.702;2023-04-30T07:41:18;13.40;99.90
11055;DHT22;5580;50.106;8.702;2023-04-30T07:43:44;13.70;99.90
11055;DHT22;5580;50.106;8.702;2023-04-30T07:46:09;14.00;99.90
11055;DHT22;5580;50.106;8.702;2023-04-30T07:48:35;14.40;99.90
11055;DHT22;5580;50.106;8.702;2023-04-30T07:51:02;14.50;99.90
11055;DHT22;5580;50.106;8.702;2023-04-30T07:53:29;14.50;99.90
11055;DHT22;5580;50.106;8.702;2023-04-30T07:55:55;14.70;99.90
11055;DHT22;5580;50.106;8.702;2023-04-30T07:58:20;14.90;99.90
11055;DHT22;5580;50.106;8.702;2023-04-30T08:00:46;14.90;99.90
11055;DHT22;5580;50.106;8.702;2023-04-30T08:03:12;15.10;99.90
11055;DHT22;5580;50.106;8.702;2023-04-30T08:05:37;15.20;99.90
11055;DHT22;5580;50.106;8.702;2023-04-30T08:08:03;15.20;99.90
11055;DHT22;5580;50.106;8.702;2023-04-30T08:10:29;15.10;99.90
11055;DHT22;5580;50.106;8.702;2023-04-30T08:12:55;15.00;99.90
11055;DHT22;5580;50.106;8.702;2023-04-30T08:15:20;14.90;99.90
11055;DHT22;5580;50.106;8.702;2023-04-30T08:17:51;15.00;99.90
11055;DHT22;5580;50.106;8.702;2023-04-30T08:20:16;15.00;99.90
11055;DHT22;5580;50.106;8.702;2023-04-30T08:22:43;14.90;99.90
11055;DHT22;5580;50.106;8.702;2023-04-30T08:25:12;14.90;99.90
11055;DHT22;5580;50.106;8.702;2023-04-30T08:27:38;15.10;99.90
11055;DHT22;5580;50.106;8.702;2023-04-30T08:30:07;15.30;99.90
11055;DHT22;5580;50.106;8.702;2023-04-30T08:32:34;15.30;99.90
11055;DHT22;5580;50.106;8.702;2023-04-30T08:35:03;15.50;99.90
11055;DHT22;5580;50.106;8.702;2023-04-30T08:37:29;15.30;99.90
11055;DHT22;5580;50.106;8.702;2023-04-30T08:39:55;15.30;99.90
11055;DHT22;5580;50.106;8.702;2023-04-30T08:42:24;15.30;99.90
11055;DHT22;5580;50.106;8.702;2023-04-30T08:44:50;15.30;99.90
11055;DHT22;5580;50.106;8.702;2023-04-30T08:47:16;15.30;99.90
11055;DHT22;5580;50.106;8.702;2023-04-30T08:49:42;15.30;99.90
11055;DHT22;5580;50.106;8.702;2023-04-30T08:52:09;15.30;99.90
11055;DHT22;5580;50.106;8.702;2023-04-30T08:54:36;15.30;99.90
11055;DHT22;5580;50.106;8.702;2023-04-30T08:57:02;15.40;99.90
11055;DHT22;5580;50.106;8.702;2023-04-30T08:59:28;15.40;99.90
11055;DHT22;5580;50.106;8.702;2023-04-30T09:01:54;15.60;99.90
11055;DHT22;5580;50.106;8.702;2023-04-30T09:04:20;15.70;99.90
11055;DHT22;5580;50.106;8.702;2023-04-30T09:06:46;15.70;99.90
11055;DHT22;5580;50.106;8.702;2023-04-30T09:09:13;15.90;99.90
11055;DHT22;5580;50.106;8.702;2023-04-30T09:11:40;16.00;99.90
11055;DHT22;5580;50.106;8.702;2023-04-30T09:14:06;15.90;99.90
11055;DHT22;5580;50.106;8.702;2023-04-30T09:16:49;16.00;99.90
11055;DHT22;5580;50.106;8.702;2023-04-30T09:19:27;16.00;99.90
11055;DHT22;5580;50.106;8.702;2023-04-30T09:21:53;16.00;99.90
11055;DHT22;5580;50.106;8.702;2023-04-30T09:24:18;16.00;99.90
11055;DHT22;5580;50.106;8.702;2023-04-30T09:26:45;16.00;99.90
11055;DHT22;5580;50.106;8.702;2023-04-30T09:29:14;16.00;99.90
11055;DHT22;5580;50.106;8.702;2023-04-30T09:31:42;16.00;99.90
11055;DHT22;5580;50.106;8.702;2023-04-30T09:34:09;16.00;99.90
11055;DHT22;5580;50.106;8.702;2023-04-30T09:36:35;15.90;99.90
11055;DHT22;5580;50.106;8.702;2023-04-30T09:39:08;16.00;99.90
11055;DHT22;5580;50.106;8.702;2023-04-30T09:41:36;16.10;99.90
11055;DHT22;5580;50.106;8.702;2023-04-30T09:44:01;16.20;99.90
11055;DHT22;5580;50.106;8.702;2023-04-30T09:46:32;16.20;99.90
11055;DHT22;5580;50.106;8.702;2023-04-30T09:49:00;16.30;99.90
11055;DHT22;5580;50.106;8.702;2023-04-30T09:51:27;16.30;99.90
11055;DHT22;5580;50.106;8.702;2023-04-30T09:53:53;16.40;99.90
11055;DHT22;5580;50.106;8.702;2023-04-30T09:56:22;16.40;99.90
11055;DHT22;5580;50.106;8.702;2023-04-30T09:58:54;16.50;99.90
11055;DHT22;5580;50.106;8.702;2023-04-30T10:01:24;16.50;99.90
11055;DHT22;5580;50.106;8.702;2023-04-30T10:03:53;16.50;99.90
11055;DHT22;5580;50.106;8.702;2023-04-30T10:06:20;16.50;99.90
11055;DHT22;5580;50.106;8.702;2023-04-30T10:08:47;16.60;99.90
11055;DHT22;5580;50.106;8.702;2023-04-30T10:11:19;16.50;99.90
11055;DHT22;5580;50.106;8.702;2023-04-30T10:13:55;16.50;99.90
11055;DHT22;5580;50.106;8.702;2023-04-30T10:16:33;16.40;99.90
11055;DHT22;5580;50.106;8.702;2023-04-30T10:19:17;16.50;99.90
11055;DHT22;5580;50.106;8.702;2023-04-30T10:21:45;16.50;99.90
11055;DHT22;5580;50.106;8.702;2023-04-30T10:24:14;16.50;99.90
11055;DHT22;5580;50.106;8.702;2023-04-30T10:26:44;16.60;99.90
11055;DHT22;5580;50.106;8.702;2023-04-30T10:29:12;16.60;99.90
11055;DHT22;5580;50.106;8.702;2023-04-30T10:31:39;16.70;99.90
11055;DHT22;5580;50.106;8.702;2023-04-30T10:36:47;16.80;99.90
11055;DHT22;5580;50.106;8.702;2023-04-30T10:39:18;16.70;99.90
11055;DHT22;5580;50.106;8.702;2023-04-30T10:41:45;16.70;99.90
11055;DHT22;5580;50.106;8.702;2023-04-30T10:44:11;16.70;99.90
11055;DHT22;5580;50.106;8.702;2023-04-30T10:46:38;16.80;99.90
11055;DHT22;5580;50.106;8.702;2023-04-30T10:49:03;16.90;99.90
11055;DHT22;5580;50.106;8.702;2023-04-30T10:51:50;16.80;99.90
11055;DHT22;5580;50.106;8.702;2023-04-30T10:54:27;16.70;99.90
11055;DHT22;5580;50.106;8.702;2023-04-30T10:57:13;16.70;99.90
11055;DHT22;5580;50.106;8.702;2023-04-30T10:59:44;16.60;99.90
11055;DHT22;5580;50.106;8.702;2023-04-30T11:02:11;16.60;99.90
11055;DHT22;5580;50.106;8.702;2023-04-30T11:07:30;16.70;99.90
11055;DHT22;5580;50.106;8.702;2023-04-30T11:09:56;16.70;99.90
11055;DHT22;5580;50.106;8.702;2023-04-30T11:12:22;16.80;99.90
11055;DHT22;5580;50.106;8.702;2023-04-30T11:15:01;16.80;99.90
11055;DHT22;5580;50.106;8.702;2023-04-30T11:17:31;16.80;99.90
11055;DHT22;5580;50.106;8.702;2023-04-30T11:19:59;16.80;99.90
11055;DHT22;5580;50.106;8.702;2023-04-30T11:22:27;16.80;99.90
11055;DHT22;5580;50.106;8.702;2023-04-30T11:25:04;16.90;99.90
11055;DHT22;5580;50.106;8.702;2023-04-30T11:27:32;17.00;99.90
11055;DHT22;5580;50.106;8.702;2023-04-30T11:29:58;16.90;99.90
11055;DHT22;5580;50.106;8.702;2023-04-30T11:32:26;17.00;99.90
11055;DHT22;5580;50.106;8.702;2023-04-30T11:34:56;17.00;99.90
11055;DHT22;5580;50.106;8.702;2023-04-30T11:37:41;17.00;99.90
11055;DHT22;5580;50.106;8.702;2023-04-30T11:40:13;17.00;99.90
11055;DHT22;5580;50.106;8.702;2023-04-30T11:42:41;17.00;99.90
11055;DHT22;5580;50.106;8.702;2023-04-30T11:45:15;17.10;99.90
11055;DHT22;5580;50.106;8.702;2023-04-30T11:47:49;17.00;99.90
11055;DHT22;5580;50.106;8.702;2023-04-30T11:50:19;17.00;99.90
11055;DHT22;5580;50.106;8.702;2023-04-30T11:52:52;17.10;99.90
11055;DHT22;5580;50.106;8.702;2023-04-30T11:55:19;17.20;99.90
11055;DHT22;5580;50.106;8.702;2023-04-30T11:57:47;17.20;99.90
11055;DHT22;5580;50.106;8.702;2023-04-30T12:00:18;17.20;99.90
11055;DHT22;5580;50.106;8.702;2023-04-30T12:02:46;17.20;99.90
11055;DHT22;5580;50.106;8.702;2023-04-30T12:05:17;17.20;99.90
11055;DHT22;5580;50.106;8.702;2023-04-30T12:07:47;17.30;99.90
11055;DHT22;5580;50.106;8.702;2023-04-30T12:10:13;17.30;99.90
11055;DHT22;5580;50.106;8.702;2023-04-30T12:12:39;17.30;99.90
11055;DHT22;5580;50.106;8.702;2023-04-30T12:15:13;17.30;99.90
11055;DHT22;5580;50.106;8.702;2023-04-30T12:17:38;17.30;99.90
11055;DHT22;5580;50.106;8.702;2023-04-30T12:20:05;17.30;99.90
11055;DHT22;5580;50.106;8.702;2023-04-30T12:22:31;17.40;99.90
11055;DHT22;5580;50.106;8.702;2023-04-30T12:24:58;17.30;99.90
11055;DHT22;5580;50.106;8.702;2023-04-30T12:27:24;17.40;99.90
11055;DHT22;5580;50.106;8.702;2023-04-30T12:29:50;17.40;99.90
11055;DHT22;5580;50.106;8.702;2023-04-30T12:32:20;17.50;99.90
11055;DHT22;5580;50.106;8.702;2023-04-30T12:34:45;17.60;99.90
11055;DHT22;5580;50.106;8.702;2023-04-30T12:37:14;17.60;99.90
11055;DHT22;5580;50.106;8.702;2023-04-30T12:39:40;17.70;99.90
11055;DHT22;5580;50.106;8.702;2023-04-30T12:42:06;17.70;99.90
11055;DHT22;5580;50.106;8.702;2023-04-30T12:44:42;17.60;99.90
11055;DHT22;5580;50.106;8.702;2023-04-30T12:47:08;17.70;99.90
11055;DHT22;5580;50.106;8.702;2023-04-30T12:49:34;17.70;99.90
11055;DHT22;5580;50.106;8.702;2023-04-30T12:52:11;17.80;99.90
11055;DHT22;5580;50.106;8.702;2023-04-30T12:54:38;17.80;99.90
11055;DHT22;5580;50.106;8.702;2023-04-30T12:59:38;17.80;99.90
11055;DHT22;5580;50.106;8.702;2023-04-30T13:02:12;17.90;99.90
11055;DHT22;5580;50.106;8.702;2023-04-30T13:04:40;17.90;99.90
11055;DHT22;5580;50.106;8.702;2023-04-30T13:07:06;17.90;99.90
11055;DHT22;5580;50.106;8.702;2023-04-30T13:09:32;17.90;99.90
11055;DHT22;5580;50.106;8.702;2023-04-30T13:11:58;17.80;99.90
11055;DHT22;5580;50.106;8.702;2023-04-30T13:14:24;17.90;99.90
11055;DHT22;5580;50.106;8.702;2023-04-30T13:16:50;17.90;99.90
11055;DHT22;5580;50.106;8.702;2023-04-30T13:19:15;17.90;99.90
11055;DHT22;5580;50.106;8.702;2023-04-30T13:21:41;17.80;99.90
11055;DHT22;5580;50.106;8.702;2023-04-30T13:24:06;17.80;99.90
11055;DHT22;5580;50.106;8.702;2023-04-30T13:26:32;17.90;99.90
11055;DHT22;5580;50.106;8.702;2023-04-30T13:28:58;18.00;99.90
11055;DHT22;5580;50.106;8.702;2023-04-30T13:31:23;18.00;99.90
11055;DHT22;5580;50.106;8.702;2023-04-30T13:33:49;18.10;99.90
11055;DHT22;5580;50.106;8.702;2023-04-30T13:36:15;18.20;99.90
11055;DHT22;5580;50.106;8.702;2023-04-30T13:38:40;18.20;99.90
11055;DHT22;5580;50.106;8.702;2023-04-30T13:41:06;18.20;99.90
11055;DHT22;5580;50.106;8.702;2023-04-30T13:43:32;18.20;99.90
11055;DHT22;5580;50.106;8.702;2023-04-30T13:48:33;18.40;99.90
11055;DHT22;5580;50.106;8.702;2023-04-30T13:50:59;18.40;99.90
11055;DHT22;5580;50.106;8.702;2023-04-30T13:53:25;18.40;99.90
11055;DHT22;5580;50.106;8.702;2023-04-30T13:55:53;18.30;99.90
11055;DHT22;5580;50.106;8.702;2023-04-30T13:58:19;18.30;99.90
11055;DHT22;5580;50.106;8.702;2023-04-30T14:00:44;18.30;99.90
11055;DHT22;5580;50.106;8.702;2023-04-30T14:03:10;18.30;99.90
11055;DHT22;5580;50.106;8.702;2023-04-30T14:05:37;18.30;99.90
11055;DHT22;5580;50.106;8.702;2023-04-30T14:08:04;18.30;99.90
11055;DHT22;5580;50.106;8.702;2023-04-30T14:10:29;18.30;99.90
11055;DHT22;5580;50.106;8.702;2023-04-30T14:12:55;18.40;99.90
11055;DHT22;5580;50.106;8.702;2023-04-30T14:15:21;18.40;99.90
11055;DHT22;5580;50.106;8.702;2023-04-30T14:17:47;18.40;99.90
11055;DHT22;5580;50.106;8.702;2023-04-30T14:20:13;18.50;99.90
11055;DHT22;5580;50.106;8.702;2023-04-30T14:22:38;18.40;99.90
11055;DHT22;5580;50.106;8.702;2023-04-30T14:25:05;18.40;99.90
11055;DHT22;5580;50.106;8.702;2023-04-30T14:27:31;18.50;99.90
11055;DHT22;5580;50.106;8.702;2023-04-30T14:29:56;18.40;99.90
11055;DHT22;5580;50.106;8.702;2023-04-30T14:32:25;18.40;99.90
11055;DHT22;5580;50.106;8.702;2023-04-30T14:34:51;18.30;99.90
11055;DHT22;5580;50.106;8.702;2023-04-30T14:37:17;18.30;99.90
11055;DHT22;5580;50.106;8.702;2023-04-30T14:39:43;18.30;99.90
11055;DHT22;5580;50.106;8.702;2023-04-30T14:42:09;18.40;99.90
11055;DHT22;5580;50.106;8.702;2023-04-30T14:44:36;18.40;99.90
11055;DHT22;5580;50.106;8.702;2023-04-30T14:47:02;18.40;99.90
11055;DHT22;5580;50.106;8.702;2023-04-30T14:49:27;18.50;99.90
11055;DHT22;5580;50.106;8.702;2023-04-30T14:51:53;18.50;99.90
11055;DHT22;5580;50.106;8.702;2023-04-30T14:54:19;18.60;99.90
11055;DHT22;5580;50.106;8.702;2023-04-30T14:56:45;18.60;99.90
11055;DHT22;5580;50.106;8.702;2023-04-30T14:59:10;18.60;99.90
11055;DHT22;5580;50.106;8.702;2023-04-30T15:01:37;18.60;99.90
11055;DHT22;5580;50.106;8.702;2023-04-30T15:04:03;18.50;99.90
11055;DHT22;5580;50.106;8.702;2023-04-30T15:06:28;18.50;99.90
11055;DHT22;5580;50.106;8.702;2023-04-30T15:08:55;18.50;99.90
11055;DHT22;5580;50.106;8.702;2023-04-30T15:11:20;18.50;99.90
11055;DHT22;5580;50.106;8.702;2023-04-30T15:13:46;18.50;99.90
11055;DHT22;5580;50.106;8.702;2023-04-30T15:16:12;18.50;99.90
11055;DHT22;5580;50.106;8.702;2023-04-30T15:18:37;18.50;99.90
11055;DHT22;5580;50.106;8.702;2023-04-30T15:21:04;18.50;99.90
11055;DHT22;5580;50.106;8.702;2023-04-30T15:23:29;18.50;99.90
11055;DHT22;5580;50.106;8.702;2023-04-30T15:25:56;18.50;99.90
11055;DHT22;5580;50.106;8.702;2023-04-30T15:28:21;18.50;99.90
11055;DHT22;5580;50.106;8.702;2023-04-30T15:30:49;18.50;99.90
11055;DHT22;5580;50.106;8.702;2023-04-30T15:33:16;18.50;99.90
11055;DHT22;5580;50.106;8.702;2023-04-30T15:35:43;18.40;99.90
11055;DHT22;5580;50.106;8.702;2023-04-30T15:38:09;18.40;99.90
11055;DHT22;5580;50.106;8.702;2023-04-30T15:40:35;18.40;99.90
11055;DHT22;5580;50.106;8.702;2023-04-30T15:43:01;18.40;99.90
11055;DHT22;5580;50.106;8.702;2023-04-30T15:45:27;18.40;99.90
11055;DHT22;5580;50.106;8.702;2023-04-30T15:47:53;18.40;99.70
11055;DHT22;5580;50.106;8.702;2023-04-30T15:50:19;18.40;99.70
11055;DHT22;5580;50.106;8.702;2023-04-30T15:52:45;18.50;99.90
11055;DHT22;5580;50.106;8.702;2023-04-30T15:55:11;18.50;99.90
11055;DHT22;5580;50.106;8.702;2023-04-30T15:57:37;18.60;99.90
11055;DHT22;5580;50.106;8.702;2023-04-30T16:00:03;18.60;99.90
11055;DHT22;5580;50.106;8.702;2023-04-30T16:02:29;18.70;99.90
11055;DHT22;5580;50.106;8.702;2023-04-30T16:04:55;18.70;99.60
11055;DHT22;5580;50.106;8.702;2023-04-30T16:07:21;18.60;99.70
11055;DHT22;5580;50.106;8.702;2023-04-30T16:09:47;18.60;98.90